sensor_id;sensor_type;location;lat;lon;timestamp;P1;durP1;ratioP1;P2;durP2;ratioP2
45366;SDS011;31100;55.848;37.636;2023-06-14T00:00:51;10.27;;;5.45;;
45366;SDS011;31100;55.848;37.636;2023-06-14T00:03:17;10.75;;;6.07;;
45366;SDS011;31100;55.848;37.636;2023-06-14T00:05:44;13.48;;;5.05;;
45366;SDS011;31100;55.848;37.636;2023-06-14T00:08:11;10.20;;;5.65;;
45366;SDS011;31100;55.848;37.636;2023-06-14T00:10:37;9.63;;;4.97;;
45366;SDS011;31100;55.848;37.636;2023-06-14T00:13:04;10.00;;;5.75;;
45366;SDS011;31100;55.848;37.636;2023-06-14T00:15:30;14.07;;;6.53;;
45366;SDS011;31100;55.848;37.636;2023-06-14T00:17:56;9.60;;;5.70;;
45366;SDS011;31100;55.848;37.636;2023-06-14T00:20:26;10.20;;;6.35;;
45366;SDS011;31100;55.848;37.636;2023-06-14T00:22:56;12.20;;;5.82;;
45366;SDS011;31100;55.848;37.636;2023-06-14T00:25:24;9.15;;;5.65;;
45366;SDS011;31100;55.848;37.636;2023-06-14T00:27:53;12.98;;;6.07;;
45366;SDS011;31100;55.848;37.636;2023-06-14T00:30:19;13.85;;;5.97;;
45366;SDS011;31100;55.848;37.636;2023-06-14T00:32:45;12.52;;;6.57;;
45366;SDS011;31100;55.848;37.636;2023-06-14T00:35:11;10.60;;;6.00;;
45366;SDS011;31100;55.848;37.636;2023-06-14T00:37:36;12.32;;;5.55;;
45366;SDS011;31100;55.848;37.636;2023-06-14T00:40:03;12.70;;;5.72;;
45366;SDS011;31100;55.848;37.636;2023-06-14T00:42:29;11.90;;;6.07;;
45366;SDS011;31100;55.848;37.636;2023-06-14T00:44:55;9.57;;;5.72;;
45366;SDS011;31100;55.848;37.636;2023-06-14T00:47:20;11.23;;;5.75;;
45366;SDS011;31100;55.848;37.636;2023-06-14T00:49:46;11.05;;;5.43;;
45366;SDS011;31100;55.848;37.636;2023-06-14T00:52:13;10.38;;;6.40;;
45366;SDS011;31100;55.848;37.636;2023-06-14T00:54:39;14.25;;;5.97;;
45366;SDS011;31100;55.848;37.636;2023-06-14T00:57:06;12.30;;;6.25;;
45366;SDS011;31100;55.848;37.636;2023-06-14T00:59:32;12.57;;;6.40;;
45366;SDS011;31100;55.848;37.636;2023-06-14T01:01:58;15.15;;;6.30;;
45366;SDS011;31100;55.848;37.636;2023-06-14T01:04:23;10.45;;;6.20;;
45366;SDS011;31100;55.848;37.636;2023-06-14T01:06:55;13.85;;;6.75;;
45366;SDS011;31100;55.848;37.636;2023-06-14T01:12:28;12.00;;;5.50;;
45366;SDS011;31100;55.848;37.636;2023-06-14T01:14:59;12.90;;;5.78;;
45366;SDS011;31100;55.848;37.636;2023-06-14T01:17:25;9.80;;;6.50;;
45366;SDS011;31100;55.848;37.636;2023-06-14T01:19:52;11.27;;;6.45;;
45366;SDS011;31100;55.848;37.636;2023-06-14T01:22:23;12.52;;;5.80;;
45366;SDS011;31100;55.848;37.636;2023-06-14T01:24:51;14.75;;;6.40;;
45366;SDS011;31100;55.848;37.636;2023-06-14T01:27:21;12.40;;;6.30;;
45366;SDS011;31100;55.848;37.636;2023-06-14T01:29:49;12.23;;;5.93;;
45366;SDS011;31100;55.848;37.636;2023-06-14T01:32:21;9.45;;;5.65;;
45366;SDS011;31100;55.848;37.636;2023-06-14T01:34:50;13.02;;;6.18;;
45366;SDS011;31100;55.848;37.636;2023-06-14T01:37:15;9.90;;;5.75;;
45366;SDS011;31100;55.848;37.636;2023-06-14T01:39:42;15.05;;;6.20;;
45366;SDS011;31100;55.848;37.636;2023-06-14T01:42:08;10.88;;;5.22;;
45366;SDS011;31100;55.848;37.636;2023-06-14T01:44:36;12.40;;;6.00;;
45366;SDS011;31100;55.848;37.636;2023-06-14T01:47:02;12.90;;;6.40;;
45366;SDS011;31100;55.848;37.636;2023-06-14T01:49:28;11.77;;;5.80;;
45366;SDS011;31100;55.848;37.636;2023-06-14T01:51:53;9.90;;;6.43;;
45366;SDS011;31100;55.848;37.636;2023-06-14T01:54:19;12.98;;;5.78;;
45366;SDS011;31100;55.848;37.636;2023-06-14T01:56:44;8.93;;;5.32;;
45366;SDS011;31100;55.848;37.636;2023-06-14T01:59:10;13.50;;;5.85;;
45366;SDS011;31100;55.848;37.636;2023-06-14T02:01:35;11.90;;;5.57;;
45366;SDS011;31100;55.848;37.636;2023-06-14T02:04:01;9.30;;;5.38;;
45366;SDS011;31100;55.848;37.636;2023-06-14T02:06:27;10.88;;;5.85;;
45366;SDS011;31100;55.848;37.636;2023-06-14T02:08:53;15.13;;;6.07;;
45366;SDS011;31100;55.848;37.636;2023-06-14T02:11:18;10.23;;;6.18;;
45366;SDS011;31100;55.848;37.636;2023-06-14T02:13:44;9.07;;;5.47;;
45366;SDS011;31100;55.848;37.636;2023-06-14T02:16:10;9.50;;;6.07;;
45366;SDS011;31100;55.848;37.636;2023-06-14T02:18:36;12.65;;;5.75;;
45366;SDS011;31100;55.848;37.636;2023-06-14T02:21:01;11.27;;;5.72;;
45366;SDS011;31100;55.848;37.636;2023-06-14T02:23:27;10.63;;;5.40;;
45366;SDS011;31100;55.848;37.636;2023-06-14T02:25:52;8.38;;;5.63;;
45366;SDS011;31100;55.848;37.636;2023-06-14T02:28:18;11.93;;;5.70;;
45366;SDS011;31100;55.848;37.636;2023-06-14T02:30:43;10.00;;;5.78;;
45366;SDS011;31100;55.848;37.636;2023-06-14T02:33:09;9.80;;;5.68;;
45366;SDS011;31100;55.848;37.636;2023-06-14T02:35:37;13.77;;;5.97;;
45366;SDS011;31100;55.848;37.636;2023-06-14T02:38:03;10.55;;;6.68;;
45366;SDS011;31100;55.848;37.636;2023-06-14T02:40:28;10.60;;;5.53;;
45366;SDS011;31100;55.848;37.636;2023-06-14T02:42:54;10.57;;;6.40;;
45366;SDS011;31100;55.848;37.636;2023-06-14T02:45:19;10.23;;;5.90;;
45366;SDS011;31100;55.848;37.636;2023-06-14T02:47:46;10.05;;;6.03;;
45366;SDS011;31100;55.848;37.636;2023-06-14T02:50:11;12.48;;;6.32;;
45366;SDS011;31100;55.848;37.636;2023-06-14T02:52:37;10.90;;;6.00;;
45366;SDS011;31100;55.848;37.636;2023-06-14T02:55:03;13.27;;;6.00;;
45366;SDS011;31100;55.848;37.636;2023-06-14T02:57:29;8.23;;;5.50;;
45366;SDS011;31100;55.848;37.636;2023-06-14T02:59:54;10.27;;;6.05;;
45366;SDS011;31100;55.848;37.636;2023-06-14T03:02:20;9.32;;;5.75;;
45366;SDS011;31100;55.848;37.636;2023-06-14T03:04:45;10.38;;;5.40;;
45366;SDS011;31100;55.848;37.636;2023-06-14T03:07:11;12.07;;;5.90;;
45366;SDS011;31100;55.848;37.636;2023-06-14T03:09:37;11.85;;;6.15;;
45366;SDS011;31100;55.848;37.636;2023-06-14T03:12:04;11.75;;;6.10;;
45366;SDS011;31100;55.848;37.636;2023-06-14T03:14:31;7.97;;;5.53;;
45366;SDS011;31100;55.848;37.636;2023-06-14T03:16:57;11.88;;;5.57;;
45366;SDS011;31100;55.848;37.636;2023-06-14T03:19:24;9.27;;;5.72;;
45366;SDS011;31100;55.848;37.636;2023-06-14T03:21:50;10.73;;;6.07;;
45366;SDS011;31100;55.848;37.636;2023-06-14T03:24:16;9.95;;;6.00;;
45366;SDS011;31100;55.848;37.636;2023-06-14T03:26:42;10.73;;;6.90;;
45366;SDS011;31100;55.848;37.636;2023-06-14T03:29:08;11.13;;;6.13;;
45366;SDS011;31100;55.848;37.636;2023-06-14T03:31:34;11.98;;;6.00;;
45366;SDS011;31100;55.848;37.636;2023-06-14T03:34:00;10.30;;;5.57;;
45366;SDS011;31100;55.848;37.636;2023-06-14T03:36:26;9.48;;;5.97;;
45366;SDS011;31100;55.848;37.636;2023-06-14T03:38:53;10.15;;;6.03;;
45366;SDS011;31100;55.848;37.636;2023-06-14T03:41:18;12.32;;;6.40;;
45366;SDS011;31100;55.848;37.636;2023-06-14T03:43:44;12.15;;;6.47;;
45366;SDS011;31100;55.848;37.636;2023-06-14T03:46:09;11.82;;;6.80;;
45366;SDS011;31100;55.848;37.636;2023-06-14T03:48:35;12.25;;;5.82;;
45366;SDS011;31100;55.848;37.636;2023-06-14T03:51:00;8.93;;;6.10;;
45366;SDS011;31100;55.848;37.636;2023-06-14T03:53:26;7.43;;;5.50;;
45366;SDS011;31100;55.848;37.636;2023-06-14T03:55:53;8.38;;;5.47;;
45366;SDS011;31100;55.848;37.636;2023-06-14T03:58:19;7.70;;;5.57;;
45366;SDS011;31100;55.848;37.636;2023-06-14T04:00:44;10.30;;;5.82;;
45366;SDS011;31100;55.848;37.636;2023-06-14T04:03:10;9.60;;;5.63;;
45366;SDS011;31100;55.848;37.636;2023-06-14T04:05:40;10.52;;;6.05;;
45366;SDS011;31100;55.848;37.636;2023-06-14T04:08:10;10.20;;;5.63;;
45366;SDS011;31100;55.848;37.636;2023-06-14T04:10:35;11.77;;;6.10;;
45366;SDS011;31100;55.848;37.636;2023-06-14T04:13:01;8.50;;;5.35;;
45366;SDS011;31100;55.848;37.636;2023-06-14T04:15:26;10.13;;;5.72;;
45366;SDS011;31100;55.848;37.636;2023-06-14T04:17:55;9.00;;;5.07;;
45366;SDS011;31100;55.848;37.636;2023-06-14T04:20:22;9.77;;;5.78;;
45366;SDS011;31100;55.848;37.636;2023-06-14T04:22:49;10.48;;;5.35;;
45366;SDS011;31100;55.848;37.636;2023-06-14T04:25:15;9.07;;;5.45;;
45366;SDS011;31100;55.848;37.636;2023-06-14T04:27:41;13.63;;;5.38;;
45366;SDS011;31100;55.848;37.636;2023-06-14T04:30:07;8.95;;;5.00;;
45366;SDS011;31100;55.848;37.636;2023-06-14T04:32:33;9.32;;;4.95;;
45366;SDS011;31100;55.848;37.636;2023-06-14T04:35:03;10.93;;;5.38;;
45366;SDS011;31100;55.848;37.636;2023-06-14T04:37:29;12.10;;;5.10;;
45366;SDS011;31100;55.848;37.636;2023-06-14T04:39:55;9.07;;;5.10;;
45366;SDS011;31100;55.848;37.636;2023-06-14T04:42:21;8.45;;;5.10;;
45366;SDS011;31100;55.848;37.636;2023-06-14T04:44:50;6.70;;;4.15;;
45366;SDS011;31100;55.848;37.636;2023-06-14T04:47:16;7.63;;;5.07;;
45366;SDS011;31100;55.848;37.636;2023-06-14T04:49:42;6.53;;;4.60;;
45366;SDS011;31100;55.848;37.636;2023-06-14T04:52:07;8.18;;;4.70;;
45366;SDS011;31100;55.848;37.636;2023-06-14T04:54:35;7.13;;;4.75;;
45366;SDS011;31100;55.848;37.636;2023-06-14T04:57:03;7.85;;;4.47;;
45366;SDS011;31100;55.848;37.636;2023-06-14T04:59:30;8.25;;;4.60;;
45366;SDS011;31100;55.848;37.636;2023-06-14T05:01:58;8.05;;;4.63;;
45366;SDS011;31100;55.848;37.636;2023-06-14T05:04:25;8.88;;;4.88;;
45366;SDS011;31100;55.848;37.636;2023-06-14T05:06:51;7.60;;;4.55;;
45366;SDS011;31100;55.848;37.636;2023-06-14T05:09:19;9.50;;;4.70;;
45366;SDS011;31100;55.848;37.636;2023-06-14T05:11:45;7.65;;;4.60;;
45366;SDS011;31100;55.848;37.636;2023-06-14T05:14:11;9.05;;;4.53;;
45366;SDS011;31100;55.848;37.636;2023-06-14T05:16:36;8.82;;;4.53;;
45366;SDS011;31100;55.848;37.636;2023-06-14T05:19:02;8.95;;;4.57;;
45366;SDS011;31100;55.848;37.636;2023-06-14T05:21:32;9.88;;;4.32;;
45366;SDS011;31100;55.848;37.636;2023-06-14T05:23:59;12.00;;;4.80;;
45366;SDS011;31100;55.848;37.636;2023-06-14T05:26:25;8.02;;;4.30;;
45366;SDS011;31100;55.848;37.636;2023-06-14T05:28:54;9.80;;;4.28;;
45366;SDS011;31100;55.848;37.636;2023-06-14T05:31:22;8.45;;;4.43;;
45366;SDS011;31100;55.848;37.636;2023-06-14T05:33:50;8.68;;;4.20;;
45366;SDS011;31100;55.848;37.636;2023-06-14T05:36:16;8.30;;;3.67;;
45366;SDS011;31100;55.848;37.636;2023-06-14T05:38:42;9.10;;;3.90;;
45366;SDS011;31100;55.848;37.636;2023-06-14T05:41:07;9.52;;;3.47;;
45366;SDS011;31100;55.848;37.636;2023-06-14T05:43:32;6.18;;;3.65;;
45366;SDS011;31100;55.848;37.636;2023-06-14T05:45:58;5.20;;;3.33;;
45366;SDS011;31100;55.848;37.636;2023-06-14T05:48:23;11.25;;;9.02;;
45366;SDS011;31100;55.848;37.636;2023-06-14T05:50:49;8.55;;;3.50;;
45366;SDS011;31100;55.848;37.636;2023-06-14T05:53:14;7.63;;;3.30;;
45366;SDS011;31100;55.848;37.636;2023-06-14T05:55:40;7.68;;;3.47;;
45366;SDS011;31100;55.848;37.636;2023-06-14T05:58:05;8.80;;;2.97;;
45366;SDS011;31100;55.848;37.636;2023-06-14T06:00:31;6.75;;;2.97;;
45366;SDS011;31100;55.848;37.636;2023-06-14T06:02:56;6.35;;;2.92;;
45366;SDS011;31100;55.848;37.636;2023-06-14T06:05:22;7.30;;;3.15;;
45366;SDS011;31100;55.848;37.636;2023-06-14T06:07:48;6.45;;;3.00;;
45366;SDS011;31100;55.848;37.636;2023-06-14T06:10:14;8.57;;;2.65;;
45366;SDS011;31100;55.848;37.636;2023-06-14T06:12:41;6.30;;;2.75;;
45366;SDS011;31100;55.848;37.636;2023-06-14T06:15:06;6.63;;;2.83;;
45366;SDS011;31100;55.848;37.636;2023-06-14T06:17:32;7.95;;;2.70;;
45366;SDS011;31100;55.848;37.636;2023-06-14T06:19:58;5.78;;;2.95;;
45366;SDS011;31100;55.848;37.636;2023-06-14T06:22:24;6.75;;;2.60;;
45366;SDS011;31100;55.848;37.636;2023-06-14T06:24:49;6.40;;;2.75;;
45366;SDS011;31100;55.848;37.636;2023-06-14T06:27:15;7.32;;;2.65;;
45366;SDS011;31100;55.848;37.636;2023-06-14T06:29:41;5.65;;;2.50;;
45366;SDS011;31100;55.848;37.636;2023-06-14T06:32:08;7.07;;;2.42;;
45366;SDS011;31100;55.848;37.636;2023-06-14T06:34:34;4.38;;;2.17;;
45366;SDS011;31100;55.848;37.636;2023-06-14T06:37:00;5.60;;;2.30;;
45366;SDS011;31100;55.848;37.636;2023-06-14T06:39:26;5.22;;;2.20;;
45366;SDS011;31100;55.848;37.636;2023-06-14T06:41:51;5.05;;;2.53;;
45366;SDS011;31100;55.848;37.636;2023-06-14T06:44:17;5.60;;;2.20;;
45366;SDS011;31100;55.848;37.636;2023-06-14T06:46:43;4.75;;;2.20;;
45366;SDS011;31100;55.848;37.636;2023-06-14T06:49:08;3.70;;;2.00;;
45366;SDS011;31100;55.848;37.636;2023-06-14T06:51:36;3.88;;;2.22;;
45366;SDS011;31100;55.848;37.636;2023-06-14T06:54:02;3.72;;;2.22;;
45366;SDS011;31100;55.848;37.636;2023-06-14T06:56:28;4.18;;;1.95;;
45366;SDS011;31100;55.848;37.636;2023-06-14T06:58:53;3.08;;;1.88;;
45366;SDS011;31100;55.848;37.636;2023-06-14T07:01:19;6.90;;;2.47;;
45366;SDS011;31100;55.848;37.636;2023-06-14T07:03:45;4.35;;;2.15;;
45366;SDS011;31100;55.848;37.636;2023-06-14T07:06:11;7.35;;;3.47;;
45366;SDS011;31100;55.848;37.636;2023-06-14T07:08:37;3.83;;;2.13;;
45366;SDS011;31100;55.848;37.636;2023-06-14T07:11:03;4.45;;;2.40;;
45366;SDS011;31100;55.848;37.636;2023-06-14T07:13:32;5.07;;;2.60;;
45366;SDS011;31100;55.848;37.636;2023-06-14T07:15:58;5.43;;;2.38;;
45366;SDS011;31100;55.848;37.636;2023-06-14T07:18:25;7.93;;;2.47;;
45366;SDS011;31100;55.848;37.636;2023-06-14T07:20:52;4.85;;;2.50;;
45366;SDS011;31100;55.848;37.636;2023-06-14T07:23:20;5.88;;;2.50;;
45366;SDS011;31100;55.848;37.636;2023-06-14T07:25:46;5.38;;;2.35;;
45366;SDS011;31100;55.848;37.636;2023-06-14T07:28:11;5.97;;;2.60;;
45366;SDS011;31100;55.848;37.636;2023-06-14T07:30:37;6.55;;;2.72;;
45366;SDS011;31100;55.848;37.636;2023-06-14T07:33:02;7.18;;;2.95;;
45366;SDS011;31100;55.848;37.636;2023-06-14T07:35:28;7.72;;;2.63;;
45366;SDS011;31100;55.848;37.636;2023-06-14T07:37:53;7.30;;;2.47;;
45366;SDS011;31100;55.848;37.636;2023-06-14T07:40:19;5.03;;;2.25;;
45366;SDS011;31100;55.848;37.636;2023-06-14T07:42:44;6.43;;;2.88;;
45366;SDS011;31100;55.848;37.636;2023-06-14T07:45:11;6.53;;;2.60;;
45366;SDS011;31100;55.848;37.636;2023-06-14T07:47:38;6.10;;;3.08;;
45366;SDS011;31100;55.848;37.636;2023-06-14T07:50:04;5.22;;;2.30;;
45366;SDS011;31100;55.848;37.636;2023-06-14T07:52:30;4.78;;;2.55;;
45366;SDS011;31100;55.848;37.636;2023-06-14T07:54:56;5.35;;;4.10;;
45366;SDS011;31100;55.848;37.636;2023-06-14T07:57:21;8.40;;;3.08;;
45366;SDS011;31100;55.848;37.636;2023-06-14T07:59:47;7.10;;;2.90;;
45366;SDS011;31100;55.848;37.636;2023-06-14T08:02:13;6.47;;;2.78;;
45366;SDS011;31100;55.848;37.636;2023-06-14T08:04:38;6.75;;;2.90;;
45366;SDS011;31100;55.848;37.636;2023-06-14T08:07:04;6.70;;;3.03;;
45366;SDS011;31100;55.848;37.636;2023-06-14T08:09:30;4.80;;;2.80;;
45366;SDS011;31100;55.848;37.636;2023-06-14T08:11:56;4.95;;;2.63;;
45366;SDS011;31100;55.848;37.636;2023-06-14T08:14:21;6.55;;;2.80;;
45366;SDS011;31100;55.848;37.636;2023-06-14T08:16:47;4.68;;;2.67;;
45366;SDS011;31100;55.848;37.636;2023-06-14T08:19:13;4.30;;;2.85;;
45366;SDS011;31100;55.848;37.636;2023-06-14T08:21:38;4.65;;;2.75;;
45366;SDS011;31100;55.848;37.636;2023-06-14T08:24:05;4.65;;;2.60;;
45366;SDS011;31100;55.848;37.636;2023-06-14T08:26:30;8.32;;;2.80;;
45366;SDS011;31100;55.848;37.636;2023-06-14T08:28:56;4.43;;;2.50;;
45366;SDS011;31100;55.848;37.636;2023-06-14T08:31:23;8.80;;;2.97;;
45366;SDS011;31100;55.848;37.636;2023-06-14T08:33:50;6.38;;;2.92;;
45366;SDS011;31100;55.848;37.636;2023-06-14T08:36:15;6.35;;;2.88;;
45366;SDS011;31100;55.848;37.636;2023-06-14T08:38:41;4.78;;;3.28;;
45366;SDS011;31100;55.848;37.636;2023-06-14T08:41:06;4.53;;;2.67;;
45366;SDS011;31100;55.848;37.636;2023-06-14T08:43:33;4.95;;;2.80;;
45366;SDS011;31100;55.848;37.636;2023-06-14T08:46:00;4.60;;;2.70;;
45366;SDS011;31100;55.848;37.636;2023-06-14T08:48:26;6.13;;;2.50;;
45366;SDS011;31100;55.848;37.636;2023-06-14T08:50:53;4.68;;;2.80;;
45366;SDS011;31100;55.848;37.636;2023-06-14T08:53:26;4.30;;;2.60;;
45366;SDS011;31100;55.848;37.636;2023-06-14T08:55:54;6.32;;;2.70;;
45366;SDS011;31100;55.848;37.636;2023-06-14T08:58:20;5.47;;;2.63;;
45366;SDS011;31100;55.848;37.636;2023-06-14T09:00:49;5.68;;;2.92;;
45366;SDS011;31100;55.848;37.636;2023-06-14T09:03:17;5.82;;;3.38;;
45366;SDS011;31100;55.848;37.636;2023-06-14T09:05:45;5.15;;;3.10;;
45366;SDS011;31100;55.848;37.636;2023-06-14T09:08:11;5.13;;;3.55;;
45366;SDS011;31100;55.848;37.636;2023-06-14T09:10:36;7.35;;;3.13;;
45366;SDS011;31100;55.848;37.636;2023-06-14T09:13:02;5.57;;;2.90;;
45366;SDS011;31100;55.848;37.636;2023-06-14T09:15:32;4.32;;;2.63;;
45366;SDS011;31100;55.848;37.636;2023-06-14T09:17:58;4.53;;;2.70;;
45366;SDS011;31100;55.848;37.636;2023-06-14T09:20:26;4.80;;;2.75;;
45366;SDS011;31100;55.848;37.636;2023-06-14T09:22:51;6.63;;;3.10;;
45366;SDS011;31100;55.848;37.636;2023-06-14T09:25:18;6.53;;;3.08;;
45366;SDS011;31100;55.848;37.636;2023-06-14T09:27:45;7.82;;;3.10;;
45366;SDS011;31100;55.848;37.636;2023-06-14T09:30:10;5.43;;;3.00;;
45366;SDS011;31100;55.848;37.636;2023-06-14T09:32:37;5.38;;;2.80;;
45366;SDS011;31100;55.848;37.636;2023-06-14T09:35:07;6.68;;;3.20;;
45366;SDS011;31100;55.848;37.636;2023-06-14T09:37:33;6.28;;;2.72;;
45366;SDS011;31100;55.848;37.636;2023-06-14T09:39:59;4.80;;;3.00;;
45366;SDS011;31100;55.848;37.636;2023-06-14T09:42:25;6.43;;;3.30;;
45366;SDS011;31100;55.848;37.636;2023-06-14T09:44:53;6.60;;;3.50;;
45366;SDS011;31100;55.848;37.636;2023-06-14T09:47:19;6.20;;;2.72;;
45366;SDS011;31100;55.848;37.636;2023-06-14T09:49:48;5.10;;;3.10;;
45366;SDS011;31100;55.848;37.636;2023-06-14T09:52:16;4.80;;;2.90;;
45366;SDS011;31100;55.848;37.636;2023-06-14T09:54:43;5.20;;;3.00;;
45366;SDS011;31100;55.848;37.636;2023-06-14T09:57:15;5.50;;;2.90;;
45366;SDS011;31100;55.848;37.636;2023-06-14T09:59:45;7.35;;;2.90;;
45366;SDS011;31100;55.848;37.636;2023-06-14T10:02:25;4.10;;;2.60;;
45366;SDS011;31100;55.848;37.636;2023-06-14T10:05:06;5.82;;;3.08;;
45366;SDS011;31100;55.848;37.636;2023-06-14T10:07:41;5.78;;;2.55;;
45366;SDS011;31100;55.848;37.636;2023-06-14T10:10:18;6.22;;;3.00;;
45366;SDS011;31100;55.848;37.636;2023-06-14T10:12:44;5.97;;;2.70;;
45366;SDS011;31100;55.848;37.636;2023-06-14T10:15:09;5.68;;;2.92;;
45366;SDS011;31100;55.848;37.636;2023-06-14T10:18:01;4.53;;;2.58;;
45366;SDS011;31100;55.848;37.636;2023-06-14T10:20:35;5.82;;;2.75;;
45366;SDS011;31100;55.848;37.636;2023-06-14T10:23:13;4.57;;;2.85;;
45366;SDS011;31100;55.848;37.636;2023-06-14T10:25:42;5.97;;;2.60;;
45366;SDS011;31100;55.848;37.636;2023-06-14T10:28:18;6.15;;;3.13;;
45366;SDS011;31100;55.848;37.636;2023-06-14T10:31:06;4.55;;;2.65;;
45366;SDS011;31100;55.848;37.636;2023-06-14T10:33:33;6.25;;;3.10;;
45366;SDS011;31100;55.848;37.636;2023-06-14T10:38:58;8.20;;;3.80;;
45366;SDS011;31100;55.848;37.636;2023-06-14T10:41:28;4.80;;;2.67;;
45366;SDS011;31100;55.848;37.636;2023-06-14T10:46:55;5.38;;;2.67;;
45366;SDS011;31100;55.848;37.636;2023-06-14T10:49:42;5.55;;;2.65;;
45366;SDS011;31100;55.848;37.636;2023-06-14T10:52:09;6.43;;;2.72;;
45366;SDS011;31100;55.848;37.636;2023-06-14T10:55:01;7.05;;;3.08;;
45366;SDS011;31100;55.848;37.636;2023-06-14T10:57:55;7.68;;;2.85;;
45366;SDS011;31100;55.848;37.636;2023-06-14T11:00:23;5.68;;;3.10;;
45366;SDS011;31100;55.848;37.636;2023-06-14T11:05:26;4.75;;;2.85;;
45366;SDS011;31100;55.848;37.636;2023-06-14T11:10:38;7.65;;;3.63;;
45366;SDS011;31100;55.848;37.636;2023-06-14T11:13:06;6.38;;;3.28;;
45366;SDS011;31100;55.848;37.636;2023-06-14T11:15:32;4.60;;;3.03;;
45366;SDS011;31100;55.848;37.636;2023-06-14T11:18:03;5.43;;;2.47;;
45366;SDS011;31100;55.848;37.636;2023-06-14T11:20:33;4.03;;;2.60;;
45366;SDS011;31100;55.848;37.636;2023-06-14T11:23:00;5.43;;;2.80;;
45366;SDS011;31100;55.848;37.636;2023-06-14T11:25:26;6.15;;;2.63;;
45366;SDS011;31100;55.848;37.636;2023-06-14T11:27:55;4.15;;;2.42;;
45366;SDS011;31100;55.848;37.636;2023-06-14T11:30:22;4.70;;;2.58;;
45366;SDS011;31100;55.848;37.636;2023-06-14T11:32:48;5.03;;;3.00;;
45366;SDS011;31100;55.848;37.636;2023-06-14T11:35:14;3.90;;;2.72;;
45366;SDS011;31100;55.848;37.636;2023-06-14T11:37:40;6.72;;;2.83;;
45366;SDS011;31100;55.848;37.636;2023-06-14T11:40:07;4.35;;;2.47;;
45366;SDS011;31100;55.848;37.636;2023-06-14T11:42:34;5.70;;;2.60;;
45366;SDS011;31100;55.848;37.636;2023-06-14T11:45:00;4.55;;;2.75;;
45366;SDS011;31100;55.848;37.636;2023-06-14T11:47:33;5.85;;;3.25;;
45366;SDS011;31100;55.848;37.636;2023-06-14T11:50:00;5.75;;;3.00;;
45366;SDS011;31100;55.848;37.636;2023-06-14T11:52:26;3.75;;;2.60;;
45366;SDS011;31100;55.848;37.636;2023-06-14T11:54:52;5.35;;;2.65;;
45366;SDS011;31100;55.848;37.636;2023-06-14T11:57:18;7.38;;;2.70;;
45366;SDS011;31100;55.848;37.636;2023-06-14T11:59:44;7.72;;;3.38;;
45366;SDS011;31100;55.848;37.636;2023-06-14T12:02:16;4.82;;;2.75;;
45366;SDS011;31100;55.848;37.636;2023-06-14T12:04:42;5.05;;;2.80;;
45366;SDS011;31100;55.848;37.636;2023-06-14T12:07:11;4.22;;;2.60;;
45366;SDS011;31100;55.848;37.636;2023-06-14T12:09:40;4.65;;;2.65;;
45366;SDS011;31100;55.848;37.636;2023-06-14T12:12:09;6.53;;;3.00;;
45366;SDS011;31100;55.848;37.636;2023-06-14T12:14:35;5.30;;;3.25;;
45366;SDS011;31100;55.848;37.636;2023-06-14T12:17:04;5.30;;;2.97;;
45366;SDS011;31100;55.848;37.636;2023-06-14T12:19:33;5.83;;;2.83;;
45366;SDS011;31100;55.848;37.636;2023-06-14T12:22:09;4.43;;;2.60;;
45366;SDS011;31100;55.848;37.636;2023-06-14T12:24:35;7.25;;;2.85;;
45366;SDS011;31100;55.848;37.636;2023-06-14T12:27:00;5.60;;;3.10;;
45366;SDS011;31100;55.848;37.636;2023-06-14T12:29:28;5.68;;;2.95;;
45366;SDS011;31100;55.848;37.636;2023-06-14T12:31:54;5.32;;;2.97;;
45366;SDS011;31100;55.848;37.636;2023-06-14T12:34:22;4.35;;;2.78;;
45366;SDS011;31100;55.848;37.636;2023-06-14T12:36:49;7.13;;;2.80;;
45366;SDS011;31100;55.848;37.636;2023-06-14T12:39:20;5.70;;;2.72;;
45366;SDS011;31100;55.848;37.636;2023-06-14T12:41:48;5.90;;;2.60;;
45366;SDS011;31100;55.848;37.636;2023-06-14T12:44:14;5.60;;;2.58;;
45366;SDS011;31100;55.848;37.636;2023-06-14T12:46:40;6.85;;;3.00;;
45366;SDS011;31100;55.848;37.636;2023-06-14T12:49:10;6.18;;;3.03;;
45366;SDS011;31100;55.848;37.636;2023-06-14T12:51:36;5.45;;;2.92;;
45366;SDS011;31100;55.848;37.636;2023-06-14T12:54:02;5.13;;;2.85;;
45366;SDS011;31100;55.848;37.636;2023-06-14T12:56:28;4.70;;;2.65;;
45366;SDS011;31100;55.848;37.636;2023-06-14T12:58:54;6.50;;;2.83;;
45366;SDS011;31100;55.848;37.636;2023-06-14T13:01:19;4.78;;;2.45;;
45366;SDS011;31100;55.848;37.636;2023-06-14T13:03:48;6.30;;;2.70;;
45366;SDS011;31100;55.848;37.636;2023-06-14T13:06:15;5.20;;;2.60;;
45366;SDS011;31100;55.848;37.636;2023-06-14T13:08:41;4.78;;;2.72;;
45366;SDS011;31100;55.848;37.636;2023-06-14T13:11:07;4.40;;;2.60;;
45366;SDS011;31100;55.848;37.636;2023-06-14T13:13:32;4.80;;;2.95;;
45366;SDS011;31100;55.848;37.636;2023-06-14T13:15:58;5.82;;;2.83;;
45366;SDS011;31100;55.848;37.636;2023-06-14T13:18:23;8.48;;;2.65;;
45366;SDS011;31100;55.848;37.636;2023-06-14T13:20:48;6.22;;;2.70;;
45366;SDS011;31100;55.848;37.636;2023-06-14T13:23:15;5.60;;;2.80;;
45366;SDS011;31100;55.848;37.636;2023-06-14T13:25:40;5.50;;;2.80;;
45366;SDS011;31100;55.848;37.636;2023-06-14T13:28:06;4.32;;;2.72;;
45366;SDS011;31100;55.848;37.636;2023-06-14T13:30:32;5.15;;;2.60;;
45366;SDS011;31100;55.848;37.636;2023-06-14T13:32:58;8.57;;;2.80;;
45366;SDS011;31100;55.848;37.636;2023-06-14T13:35:24;7.40;;;3.08;;
45366;SDS011;31100;55.848;37.636;2023-06-14T13:37:50;5.93;;;2.47;;
45366;SDS011;31100;55.848;37.636;2023-06-14T13:40:16;5.93;;;2.88;;
45366;SDS011;31100;55.848;37.636;2023-06-14T13:42:41;6.75;;;2.97;;
45366;SDS011;31100;55.848;37.636;2023-06-14T13:45:07;7.18;;;2.83;;
45366;SDS011;31100;55.848;37.636;2023-06-14T13:47:35;4.85;;;2.95;;
45366;SDS011;31100;55.848;37.636;2023-06-14T13:50:00;5.43;;;2.80;;
45366;SDS011;31100;55.848;37.636;2023-06-14T13:52:26;10.02;;;3.03;;
45366;SDS011;31100;55.848;37.636;2023-06-14T13:54:52;6.75;;;2.70;;
45366;SDS011;31100;55.848;37.636;2023-06-14T13:57:17;5.93;;;2.90;;
45366;SDS011;31100;55.848;37.636;2023-06-14T13:59:43;4.07;;;2.47;;
45366;SDS011;31100;55.848;37.636;2023-06-14T14:02:12;4.88;;;2.60;;
45366;SDS011;31100;55.848;37.636;2023-06-14T14:04:38;4.70;;;2.92;;
45366;SDS011;31100;55.848;37.636;2023-06-14T14:07:05;6.90;;;3.20;;
45366;SDS011;31100;55.848;37.636;2023-06-14T14:09:31;4.35;;;2.70;;
45366;SDS011;31100;55.848;37.636;2023-06-14T14:12:00;6.32;;;2.60;;
45366;SDS011;31100;55.848;37.636;2023-06-14T14:14:27;8.57;;;2.83;;
45366;SDS011;31100;55.848;37.636;2023-06-14T14:16:53;4.45;;;2.63;;
45366;SDS011;31100;55.848;37.636;2023-06-14T14:19:20;5.63;;;2.67;;
45366;SDS011;31100;55.848;37.636;2023-06-14T14:21:46;8.27;;;2.92;;
45366;SDS011;31100;55.848;37.636;2023-06-14T14:24:11;4.18;;;2.55;;
45366;SDS011;31100;55.848;37.636;2023-06-14T14:26:37;7.20;;;2.65;;
45366;SDS011;31100;55.848;37.636;2023-06-14T14:29:02;6.28;;;2.80;;
45366;SDS011;31100;55.848;37.636;2023-06-14T14:31:28;5.13;;;2.92;;
45366;SDS011;31100;55.848;37.636;2023-06-14T14:33:53;7.18;;;3.20;;
45366;SDS011;31100;55.848;37.636;2023-06-14T14:36:19;6.00;;;2.90;;
45366;SDS011;31100;55.848;37.636;2023-06-14T14:38:45;7.03;;;3.10;;
45366;SDS011;31100;55.848;37.636;2023-06-14T14:41:12;6.45;;;3.10;;
45366;SDS011;31100;55.848;37.636;2023-06-14T14:43:37;4.93;;;3.10;;